Time;durP1;ratioP1;P1;durP2;ratioP2;P2;SDS_P1;SDS_P2;PMS_P1;PMS_P2;Temp;Humidity;BMP_temperature;BMP_pressure;BME280_temperature;BME280_humidity;BME280_pressure;Samples;Min_cycle;Max_cycle;Signal;HPM_P1;HPM_P2
2023/12/28 00:02:14;;;;;;;3.70;2.30;;;10.60;55.10;;;;;;5110924;28;20899;-69
2023/12/28 00:04:40;;;;;;;4.55;2.47;;;10.70;54.60;;;;;;5111350;28;20388;-71
2023/12/28 00:07:05;;;;;;;5.80;2.70;;;10.70;53.90;;;;;;5110873;28;20372;-70
2023/12/28 00:09:31;;;;;;;3.10;2.10;;;10.70;53.50;;;;;;5111331;28;20940;-71
2023/12/28 00:11:56;;;;;;;4.10;2.25;;;10.90;52.20;;;;;;5111074;28;20368;-71
2023/12/28 00:14:22;;;;;;;5.80;2.40;;;10.90;51.60;;;;;;5111222;28;20426;-71
2023/12/28 00:16:48;;;;;;;3.50;2.40;;;10.90;51.40;;;;;;5111296;28;20731;-71
2023/12/28 00:19:13;;;;;;;5.40;2.20;;;11.00;50.70;;;;;;5110916;28;20399;-71
2023/12/28 00:21:39;;;;;;;5.73;2.47;;;11.00;50.10;;;;;;5111172;28;20391;-69
2023/12/28 00:24:05;;;;;;;3.47;2.30;;;10.90;50.40;;;;;;5110911;28;20372;-71
2023/12/28 00:26:31;;;;;;;2.20;1.90;;;10.90;50.30;;;;;;5111115;28;20385;-69
2023/12/28 00:28:56;;;;;;;2.60;2.10;;;11.00;50.30;;;;;;5111279;28;20387;-70
2023/12/28 00:31:22;;;;;;;2.70;2.00;;;11.00;50.20;;;;;;5110859;28;20416;-71
2023/12/28 00:33:49;;;;;;;2.23;2.03;;;11.00;50.20;;;;;;5110968;28;20392;-70
2023/12/28 00:36:14;;;;;;;3.10;1.90;;;11.00;50.30;;;;;;5110744;28;20392;-70
2023/12/28 00:38:40;;;;;;;5.40;2.33;;;11.00;50.70;;;;;;5111097;28;20525;-69
2023/12/28 00:41:05;;;;;;;3.67;2.53;;;11.00;51.30;;;;;;5110746;28;20379;-70
2023/12/28 00:43:31;;;;;;;5.23;2.33;;;11.00;51.20;;;;;;5110837;28;20404;-69
2023/12/28 00:45:56;;;;;;;5.43;2.40;;;11.00;51.90;;;;;;5110918;28;20479;-69
2023/12/28 00:48:22;;;;;;;3.45;2.33;;;10.90;52.50;;;;;;5114860;28;20377;-69
2023/12/28 00:50:48;;;;;;;4.07;2.30;;;10.90;52.70;;;;;;5095911;28;20376;-70
2023/12/28 00:53:13;;;;;;;6.07;2.50;;;10.90;53.20;;;;;;5111002;28;20368;-70
2023/12/28 00:55:39;;;;;;;6.87;2.60;;;10.90;53.00;;;;;;5111013;28;20391;-70
2023/12/28 00:58:04;;;;;;;4.73;2.20;;;10.90;53.00;;;;;;5111168;28;20788;-71
2023/12/28 01:00:30;;;;;;;3.40;2.10;;;10.90;53.30;;;;;;5111976;28;20438;-70
2023/12/28 01:02:55;;;;;;;3.38;2.50;;;10.80;53.60;;;;;;5115176;28;20376;-71
2023/12/28 01:05:21;;;;;;;5.30;2.50;;;10.80;54.10;;;;;;5115178;28;20376;-70
2023/12/28 01:07:47;;;;;;;3.90;2.53;;;10.90;54.40;;;;;;5116220;28;20379;-69
2023/12/28 01:10:12;;;;;;;6.30;2.40;;;10.90;54.30;;;;;;5114771;28;20384;-70
2023/12/28 01:12:38;;;;;;;3.87;2.50;;;10.80;54.60;;;;;;5115440;28;20471;-70
2023/12/28 01:15:04;;;;;;;4.43;2.50;;;10.80;54.90;;;;;;5114825;28;20388;-68
2023/12/28 01:17:29;;;;;;;3.38;2.30;;;10.80;55.20;;;;;;5114644;28;20426;-68
2023/12/28 01:19:55;;;;;;;3.80;2.30;;;10.90;54.80;;;;;;5114505;28;20403;-68
2023/12/28 01:22:20;;;;;;;3.23;2.30;;;10.80;54.80;;;;;;5114063;28;20498;-69
2023/12/28 01:24:47;;;;;;;3.90;2.23;;;10.80;54.90;;;;;;5114330;28;20394;-68
2023/12/28 01:27:12;;;;;;;5.00;2.90;;;10.80;55.20;;;;;;5113710;28;20902;-70
2023/12/28 01:29:38;;;;;;;4.90;2.50;;;10.90;55.50;;;;;;5115477;28;20385;-70
2023/12/28 01:32:04;;;;;;;4.87;2.50;;;10.90;54.90;;;;;;5095991;28;20952;-69
2023/12/28 01:34:29;;;;;;;4.50;2.33;;;10.90;54.60;;;;;;5114099;28;20415;-70
2023/12/28 01:36:55;;;;;;;3.63;2.37;;;10.90;55.20;;;;;;5114537;28;20392;-71
2023/12/28 01:39:20;;;;;;;3.93;2.90;;;10.90;55.90;;;;;;5096045;28;20396;-72
2023/12/28 01:41:46;;;;;;;5.85;2.33;;;10.90;55.70;;;;;;5115174;28;20380;-70
2023/12/28 01:44:12;;;;;;;7.55;3.05;;;10.80;56.10;;;;;;5096090;28;20395;-70
2023/12/28 01:46:37;;;;;;;4.43;3.00;;;10.70;57.00;;;;;;5095418;28;20446;-68
2023/12/28 01:49:05;;;;;;;5.35;2.70;;;10.80;56.50;;;;;;5113672;28;20918;-69
2023/12/28 01:51:31;;;;;;;4.63;2.65;;;10.80;56.30;;;;;;5113400;28;20383;-70
2023/12/28 01:53:57;;;;;;;6.00;2.90;;;10.80;56.40;;;;;;5113747;28;20368;-70
2023/12/28 01:56:24;;;;;;;3.55;2.60;;;10.80;56.30;;;;;;5114083;28;20390;-69
2023/12/28 01:58:52;;;;;;;2.58;2.38;;;10.80;56.10;;;;;;5114034;28;20499;-70
2023/12/28 02:01:18;;;;;;;4.78;2.70;;;10.80;56.20;;;;;;5114154;28;20419;-71
2023/12/28 02:03:44;;;;;;;3.60;2.45;;;10.90;55.90;;;;;;5114256;28;20400;-68
2023/12/28 02:06:10;;;;;;;4.60;2.80;;;10.90;55.30;;;;;;5113986;28;20383;-69
2023/12/28 02:08:35;;;;;;;3.63;2.50;;;10.80;55.90;;;;;;5096555;28;20738;-70
2023/12/28 02:11:01;;;;;;;5.13;2.57;;;10.80;56.10;;;;;;5113874;28;20399;-70
2023/12/28 02:13:26;;;;;;;5.73;2.60;;;10.90;55.70;;;;;;5113948;28;21008;-70
2023/12/28 02:15:59;;;;;;;4.80;2.80;;;10.90;55.70;;;;;;5113938;28;20873;-68
2023/12/28 02:18:37;;;;;;;5.50;2.50;;;10.90;55.70;;;;;;5113629;28;20400;-71
2023/12/28 02:21:04;;;;;;;4.13;2.50;;;10.90;55.60;;;;;;5112857;28;20396;-70
2023/12/28 02:23:31;;;;;;;4.80;2.47;;;10.90;56.30;;;;;;5112995;28;20388;-70
2023/12/28 02:25:57;;;;;;;5.00;2.67;;;10.80;56.60;;;;;;5112803;28;20451;-71
2023/12/28 02:28:22;;;;;;;6.20;2.57;;;10.80;56.30;;;;;;5113374;28;20593;-70
2023/12/28 02:30:48;;;;;;;4.20;2.83;;;10.90;56.10;;;;;;5113293;28;20444;-69
2023/12/28 02:33:58;;;;;;;4.30;2.70;;;10.90;55.90;;;;;;5113074;28;20389;-70
2023/12/28 02:36:26;;;;;;;4.20;2.80;;;10.90;55.90;;;;;;5010599;28;20393;-71
2023/12/28 02:38:55;;;;;;;6.20;3.00;;;11.00;55.60;;;;;;5010605;28;20494;-71
2023/12/28 02:41:22;;;;;;;4.90;2.90;;;10.90;56.30;;;;;;5067354;28;20376;-73
2023/12/28 02:43:48;;;;;;;5.88;3.38;;;10.90;56.60;;;;;;5113785;28;20376;-71
2023/12/28 02:46:14;;;;;;;5.15;2.97;;;10.90;57.30;;;;;;5113379;28;20408;-72
2023/12/28 02:48:40;;;;;;;5.32;2.90;;;10.80;56.90;;;;;;5095452;28;20406;-71
2023/12/28 02:51:06;;;;;;;3.22;2.60;;;10.90;56.40;;;;;;5113122;28;20392;-72
2023/12/28 02:53:31;;;;;;;3.10;2.80;;;10.90;56.90;;;;;;5113659;28;20388;-72
2023/12/28 02:55:57;;;;;;;4.03;2.70;;;11.00;56.00;;;;;;5112939;28;20380;-73
2023/12/28 02:58:22;;;;;;;5.70;3.10;;;10.90;56.10;;;;;;5113138;28;20407;-71
2023/12/28 03:00:48;;;;;;;4.47;3.00;;;10.90;56.30;;;;;;5094342;28;20396;-71
2023/12/28 03:03:14;;;;;;;5.20;3.10;;;10.90;56.80;;;;;;5113307;28;20380;-72
2023/12/28 03:05:41;;;;;;;5.43;2.60;;;10.90;56.80;;;;;;5112593;28;20376;-72
2023/12/28 03:08:06;;;;;;;4.40;3.10;;;10.90;56.50;;;;;;5112635;28;20897;-72
2023/12/28 03:10:32;;;;;;;5.65;3.00;;;11.00;56.50;;;;;;5113510;28;20384;-72
2023/12/28 03:12:57;;;;;;;5.40;3.20;;;11.00;56.30;;;;;;5095070;28;20376;-72
2023/12/28 03:15:23;;;;;;;7.00;3.10;;;10.90;56.10;;;;;;5112550;28;20482;-72
2023/12/28 03:17:48;;;;;;;3.40;2.50;;;10.90;56.40;;;;;;5112295;28;20865;-72
2023/12/28 03:20:15;;;;;;;5.67;3.30;;;11.00;56.50;;;;;;5112358;28;20743;-71
2023/12/28 03:22:40;;;;;;;5.57;3.30;;;11.00;56.10;;;;;;5112121;28;20943;-72
2023/12/28 03:25:06;;;;;;;4.45;2.90;;;11.00;56.60;;;;;;5112644;28;20415;-71
2023/12/28 03:27:32;;;;;;;5.90;3.25;;;11.10;56.00;;;;;;5113515;28;20394;-72
2023/12/28 03:29:58;;;;;;;4.25;2.88;;;11.00;56.20;;;;;;5113244;28;20819;-72
2023/12/28 03:32:23;;;;;;;4.07;2.63;;;11.00;56.00;;;;;;5112827;28;20388;-71
2023/12/28 03:34:49;;;;;;;6.47;2.93;;;10.90;56.60;;;;;;5112496;28;20385;-72
2023/12/28 03:37:14;;;;;;;5.93;3.20;;;11.00;56.80;;;;;;5111548;28;20805;-72
2023/12/28 03:39:40;;;;;;;6.37;3.30;;;11.00;56.70;;;;;;5112433;28;20449;-70
2023/12/28 03:42:06;;;;;;;7.43;3.30;;;10.90;57.10;;;;;;5093301;28;20905;-71
2023/12/28 03:44:31;;;;;;;4.30;3.10;;;11.00;57.50;;;;;;5111445;28;20558;-70
2023/12/28 03:46:57;;;;;;;4.22;3.30;;;10.90;57.40;;;;;;5111161;28;20388;-71
2023/12/28 03:49:23;;;;;;;5.57;3.00;;;11.00;57.90;;;;;;5111171;28;20459;-70
2023/12/28 03:51:50;;;;;;;6.90;3.35;;;11.00;57.10;;;;;;5093218;28;20372;-71
2023/12/28 03:54:17;;;;;;;4.35;3.00;;;11.00;56.80;;;;;;5111487;28;20382;-71
2023/12/28 03:56:43;;;;;;;4.93;2.77;;;11.00;56.70;;;;;;5111191;28;20379;-73
2023/12/28 03:59:09;;;;;;;4.90;3.00;;;10.90;57.10;;;;;;5111156;28;20389;-73
2023/12/28 04:01:35;;;;;;;3.40;2.88;;;10.90;57.20;;;;;;5111231;28;20790;-71
2023/12/28 04:04:00;;;;;;;7.57;2.73;;;11.00;56.60;;;;;;5111334;28;20417;-71
2023/12/28 04:06:26;;;;;;;4.47;2.77;;;10.80;57.30;;;;;;5111086;28;20415;-71
2023/12/28 04:08:52;;;;;;;5.73;3.00;;;10.80;57.20;;;;;;5111216;28;20436;-72
2023/12/28 04:11:17;;;;;;;7.83;3.03;;;10.90;57.40;;;;;;5111126;28;20530;-72
2023/12/28 04:13:43;;;;;;;5.90;3.00;;;10.90;57.20;;;;;;5111060;28;20376;-73
2023/12/28 04:16:12;;;;;;;8.90;3.70;;;10.90;57.20;;;;;;5110826;28;20383;-72
2023/12/28 04:18:38;;;;;;;4.07;2.80;;;10.90;57.20;;;;;;5111104;28;20419;-72
2023/12/28 04:21:03;;;;;;;7.60;3.10;;;10.90;56.90;;;;;;5111050;28;20423;-72
2023/12/28 04:23:29;;;;;;;7.43;3.40;;;10.70;57.50;;;;;;5111221;28;20376;-72
2023/12/28 04:25:54;;;;;;;5.73;3.20;;;10.80;57.70;;;;;;5110975;28;20386;-72
2023/12/28 04:28:20;;;;;;;5.90;3.10;;;10.80;57.80;;;;;;5111353;28;20416;-72
2023/12/28 04:30:45;;;;;;;5.28;3.10;;;10.80;57.20;;;;;;5110997;28;20391;-71
2023/12/28 04:33:11;;;;;;;5.88;2.80;;;10.80;56.50;;;;;;5110895;28;20380;-72
2023/12/28 04:35:37;;;;;;;5.07;3.00;;;10.80;56.80;;;;;;5112155;28;20395;-72
2023/12/28 04:38:02;;;;;;;6.97;3.43;;;10.90;56.00;;;;;;5115100;28;20406;-72
2023/12/28 04:40:28;;;;;;;5.50;2.80;;;10.90;55.60;;;;;;5114883;28;20372;-71
2023/12/28 04:42:54;;;;;;;4.97;2.40;;;10.90;55.60;;;;;;5115155;28;20380;-71
2023/12/28 04:45:19;;;;;;;8.13;3.00;;;11.00;54.90;;;;;;5114751;28;20384;-72
2023/12/28 04:47:45;;;;;;;7.70;3.03;;;11.00;54.50;;;;;;5115169;28;20461;-72
2023/12/28 04:50:10;;;;;;;5.82;2.88;;;11.00;54.50;;;;;;5114924;28;20958;-71
2023/12/28 04:52:36;;;;;;;6.80;2.90;;;11.00;54.40;;;;;;5115500;28;20417;-71
2023/12/28 04:55:01;;;;;;;7.00;2.60;;;11.10;53.90;;;;;;5114839;28;20386;-71
2023/12/28 04:57:28;;;;;;;5.30;2.50;;;11.10;53.60;;;;;;5114955;28;20461;-71
2023/12/28 04:59:54;;;;;;;5.53;2.80;;;11.20;53.40;;;;;;5115046;28;20368;-71
2023/12/28 05:02:19;;;;;;;3.80;2.50;;;11.20;53.00;;;;;;5114723;28;20364;-72
2023/12/28 05:04:45;;;;;;;4.07;2.40;;;11.20;52.90;;;;;;5114807;28;20870;-71
2023/12/28 05:07:11;;;;;;;6.10;3.00;;;11.20;52.60;;;;;;5114059;28;20364;-71
2023/12/28 05:09:36;;;;;;;5.40;2.40;;;11.20;52.60;;;;;;5114480;28;20826;-71
2023/12/28 05:12:02;;;;;;;3.97;2.60;;;11.20;52.00;;;;;;5113961;28;20389;-71
2023/12/28 05:14:28;;;;;;;4.07;2.63;;;11.20;52.50;;;;;;5114944;28;20385;-73
2023/12/28 05:16:53;;;;;;;5.73;2.93;;;11.20;52.40;;;;;;5113809;28;20933;-71
2023/12/28 05:19:19;;;;;;;5.10;2.67;;;11.10;52.30;;;;;;5095807;28;20797;-71
2023/12/28 05:21:46;;;;;;;4.60;2.38;;;11.20;52.00;;;;;;5113808;28;20376;-72
2023/12/28 05:24:11;;;;;;;4.70;2.30;;;11.20;52.00;;;;;;5095643;28;20377;-71
2023/12/28 05:26:37;;;;;;;5.15;2.50;;;11.10;51.90;;;;;;5113319;28;20387;-72
2023/12/28 05:29:02;;;;;;;4.72;2.67;;;11.10;52.00;;;;;;5113333;28;20734;-71
2023/12/28 05:31:28;;;;;;;5.50;2.40;;;11.10;51.90;;;;;;5113737;28;20902;-72
2023/12/28 05:33:54;;;;;;;9.47;3.07;;;11.10;51.60;;;;;;5113484;28;20898;-73
2023/12/28 05:36:19;;;;;;;5.73;2.50;;;11.20;51.10;;;;;;5113417;28;20416;-72
2023/12/28 05:38:45;;;;;;;6.40;2.43;;;11.20;50.90;;;;;;5113364;28;20396;-70
2023/12/28 05:41:11;;;;;;;4.55;2.30;;;11.20;50.90;;;;;;5113440;28;20373;-73
2023/12/28 05:43:37;;;;;;;5.30;2.70;;;11.20;50.60;;;;;;5113871;28;20376;-70
2023/12/28 05:46:03;;;;;;;6.95;2.53;;;11.30;50.20;;;;;;5112948;28;20460;-71
2023/12/28 05:48:29;;;;;;;7.00;1.90;;;11.30;50.10;;;;;;5112411;28;20906;-71
2023/12/28 05:50:54;;;;;;;5.65;2.40;;;11.30;49.80;;;;;;5113099;28;20902;-71
2023/12/28 05:53:20;;;;;;;4.35;2.40;;;11.30;49.70;;;;;;5113441;28;20376;-72
2023/12/28 05:55:45;;;;;;;5.03;2.63;;;11.30;50.10;;;;;;5114062;28;20416;-71
2023/12/28 05:58:11;;;;;;;8.50;2.83;;;11.30;50.10;;;;;;5113803;28;20411;-71
2023/12/28 06:00:36;;;;;;;6.20;2.50;;;11.20;50.10;;;;;;5113473;28;20382;-71
2023/12/28 06:03:03;;;;;;;4.47;2.40;;;11.20;50.30;;;;;;5113745;28;20893;-71
2023/12/28 06:05:28;;;;;;;5.80;2.37;;;11.10;51.00;;;;;;5113742;28;20388;-72
2023/12/28 06:07:54;;;;;;;4.80;2.30;;;11.10;50.60;;;;;;5113134;28;20391;-72
2023/12/28 06:10:20;;;;;;;3.53;2.33;;;11.20;50.20;;;;;;5089987;28;20412;-72
2023/12/28 06:12:45;;;;;;;6.17;2.30;;;11.10;50.10;;;;;;5104866;28;20420;-72
2023/12/28 06:15:11;;;;;;;7.07;2.40;;;11.10;50.60;;;;;;5105550;28;20398;-72
2023/12/28 06:17:36;;;;;;;7.37;2.30;;;11.00;50.80;;;;;;5093118;28;20505;-72
2023/12/28 06:20:02;;;;;;;6.30;3.67;;;11.00;50.80;;;;;;5094866;28;20399;-72
2023/12/28 06:22:28;;;;;;;6.95;2.70;;;11.00;51.10;;;;;;5111589;28;20384;-72
2023/12/28 06:24:54;;;;;;;10.02;3.00;;;11.00;51.50;;;;;;5102150;28;20390;-71
2023/12/28 06:27:21;;;;;;;7.55;2.35;;;11.10;50.60;;;;;;5112168;28;20387;-70
2023/12/28 06:29:46;;;;;;;6.95;2.78;;;11.10;50.40;;;;;;5092791;28;20472;-70
2023/12/28 06:32:12;;;;;;;6.57;3.20;;;11.20;49.70;;;;;;5109061;28;20768;-71
2023/12/28 06:34:37;;;;;;;6.78;3.13;;;11.10;49.70;;;;;;5108890;28;20391;-72
2023/12/28 06:37:03;;;;;;;6.78;2.78;;;11.10;50.10;;;;;;5110278;28;20406;-73
2023/12/28 06:39:29;;;;;;;4.18;2.33;;;11.10;50.30;;;;;;5110502;28;20396;-73
2023/12/28 06:41:54;;;;;;;4.95;2.50;;;11.10;50.30;;;;;;5111105;28;20384;-73
2023/12/28 06:44:20;;;;;;;6.25;2.53;;;11.10;49.90;;;;;;5110577;28;20380;-73
2023/12/28 06:46:45;;;;;;;7.30;2.70;;;11.00;49.90;;;;;;5106560;28;20386;-72
2023/12/28 06:49:11;;;;;;;9.40;2.73;;;11.10;49.80;;;;;;5093266;28;20754;-72
2023/12/28 06:51:37;;;;;;;5.70;2.80;;;11.20;48.80;;;;;;5105305;28;20397;-72
2023/12/28 06:54:02;;;;;;;5.03;2.83;;;11.30;48.60;;;;;;5073775;28;20441;-72
2023/12/28 06:56:28;;;;;;;6.03;2.60;;;11.20;48.90;;;;;;5103994;28;20396;-71
2023/12/28 06:58:54;;;;;;;9.20;2.90;;;11.20;48.80;;;;;;5109849;28;20775;-72
2023/12/28 07:01:19;;;;;;;6.53;2.60;;;11.20;48.70;;;;;;5111536;28;20654;-71
2023/12/28 07:03:45;;;;;;;8.00;3.00;;;11.30;48.40;;;;;;5102882;28;20389;-71
2023/12/28 07:06:10;;;;;;;6.63;2.35;;;11.30;48.00;;;;;;5098486;28;20381;-71
2023/12/28 07:08:36;;;;;;;7.30;2.50;;;11.30;47.80;;;;;;5111568;28;20898;-72
2023/12/28 07:11:02;;;;;;;5.67;2.70;;;11.30;47.60;;;;;;5093282;28;20876;-71
2023/12/28 07:13:27;;;;;;;6.60;2.60;;;11.30;47.70;;;;;;5091712;28;20779;-72
2023/12/28 07:15:53;;;;;;;8.48;2.78;;;11.30;47.60;;;;;;5091181;28;20390;-72
2023/12/28 07:18:19;;;;;;;11.48;3.00;;;11.20;47.70;;;;;;5091395;28;20398;-72
2023/12/28 07:20:44;;;;;;;11.37;2.73;;;11.40;47.20;;;;;;5091163;28;20385;-71
2023/12/28 07:23:10;;;;;;;10.17;2.77;;;11.40;47.00;;;;;;5073172;28;20492;-71
2023/12/28 07:25:35;;;;;;;10.70;2.60;;;11.40;47.50;;;;;;5108180;28;20463;-72
2023/12/28 07:28:01;;;;;;;8.27;2.60;;;11.40;46.60;;;;;;5111300;28;20419;-70
2023/12/28 07:30:27;;;;;;;4.57;2.30;;;11.40;47.00;;;;;;5111584;28;20403;-70
2023/12/28 07:32:53;;;;;;;12.43;3.10;;;11.50;46.40;;;;;;5111780;28;21022;-69
2023/12/28 07:35:18;;;;;;;7.53;3.00;;;11.50;46.30;;;;;;5103747;28;20465;-70
2023/12/28 07:37:44;;;;;;;10.80;2.30;;;11.50;46.20;;;;;;5090836;28;20440;-74
2023/12/28 07:40:11;;;;;;;8.63;2.97;;;11.50;46.40;;;;;;5091076;28;20382;-70
2023/12/28 07:42:37;;;;;;;9.80;2.50;;;11.30;47.20;;;;;;5091446;28;20374;-69
2023/12/28 07:45:03;;;;;;;8.45;2.95;;;11.40;47.20;;;;;;5091260;28;20419;-72
2023/12/28 07:47:29;;;;;;;11.25;3.00;;;11.40;47.00;;;;;;5091335;28;20454;-72
2023/12/28 07:49:55;;;;;;;8.02;2.70;;;11.30;47.20;;;;;;5104107;28;20387;-71
2023/12/28 07:52:20;;;;;;;5.33;2.60;;;11.30;47.20;;;;;;5111286;28;20376;-72
2023/12/28 07:54:46;;;;;;;6.07;2.57;;;11.40;46.90;;;;;;5111415;28;20380;-69
2023/12/28 07:57:12;;;;;;;7.50;2.67;;;11.30;46.80;;;;;;5110746;28;20411;-71
2023/12/28 07:59:37;;;;;;;9.38;2.78;;;11.40;47.00;;;;;;5111152;28;20455;-69
2023/12/28 08:02:03;;;;;;;8.13;2.75;;;11.30;47.00;;;;;;5110884;28;20383;-72
2023/12/28 08:04:28;;;;;;;8.07;2.60;;;11.30;47.50;;;;;;5110874;28;20381;-71
2023/12/28 08:06:54;;;;;;;13.83;3.50;;;11.40;47.10;;;;;;5110627;28;20813;-69
2023/12/28 08:09:19;;;;;;;8.93;3.00;;;11.40;47.00;;;;;;5103898;28;20880;-72
2023/12/28 08:11:45;;;;;;;7.97;2.72;;;11.50;46.50;;;;;;5090733;28;20394;-71
2023/12/28 08:14:11;;;;;;;10.63;2.63;;;11.50;46.50;;;;;;5091550;28;20382;-71
2023/12/28 08:16:36;;;;;;;12.30;2.97;;;11.40;47.10;;;;;;5106315;28;20384;-73
2023/12/28 08:19:02;;;;;;;9.48;2.20;;;11.50;46.40;;;;;;5110567;28;20396;-71
2023/12/28 08:21:28;;;;;;;10.18;3.10;;;11.50;46.40;;;;;;5092882;28;20472;-71
2023/12/28 08:23:53;;;;;;;7.88;3.05;;;11.40;46.40;;;;;;5110599;28;20909;-71
2023/12/28 08:26:19;;;;;;;9.40;2.90;;;11.60;46.10;;;;;;5081458;28;20477;-71
2023/12/28 08:28:45;;;;;;;9.52;3.45;;;11.50;45.90;;;;;;5090446;28;20391;-71
2023/12/28 08:31:10;;;;;;;6.88;2.60;;;11.50;45.90;;;;;;5090365;28;20374;-71
2023/12/28 08:33:39;;;;;;;8.60;3.23;;;11.50;45.90;;;;;;5090922;28;20408;-71
2023/12/28 08:38:38;;;;;;;8.88;3.10;;;11.60;45.70;;;;;;5104664;28;20516;-72
2023/12/28 08:41:08;;;;;;;12.98;2.80;;;11.60;45.80;;;;;;5092114;28;20409;-73
2023/12/28 08:43:34;;;;;;;9.03;2.83;;;11.60;45.30;;;;;;5092369;28;20362;-72
2023/12/28 08:46:00;;;;;;;10.20;3.38;;;11.70;45.30;;;;;;5093169;28;20461;-72
2023/12/28 08:48:26;;;;;;;15.55;3.60;;;11.80;45.40;;;;;;5093401;28;20410;-72
2023/12/28 08:50:51;;;;;;;10.02;3.10;;;11.70;45.00;;;;;;5093394;28;20477;-70
2023/12/28 08:53:17;;;;;;;10.13;3.33;;;11.70;45.30;;;;;;5092692;28;20421;-69
2023/12/28 08:55:42;;;;;;;10.87;3.13;;;11.80;44.80;;;;;;5101693;28;20386;-72
2023/12/28 08:58:08;;;;;;;11.57;3.20;;;11.90;45.00;;;;;;5112231;28;20942;-75
2023/12/28 09:00:34;;;;;;;7.73;2.80;;;11.90;44.30;;;;;;5094088;28;20412;-72
2023/12/28 09:02:59;;;;;;;9.87;2.70;;;11.90;44.30;;;;;;5091086;28;20472;-73
2023/12/28 09:05:25;;;;;;;10.18;2.30;;;12.00;43.60;;;;;;5095552;28;20380;-69
2023/12/28 09:07:50;;;;;;;11.83;2.97;;;12.10;43.50;;;;;;5111225;28;20387;-73
2023/12/28 09:10:16;;;;;;;11.77;2.70;;;12.10;43.40;;;;;;5111227;28;20393;-72
2023/12/28 09:12:42;;;;;;;13.10;3.37;;;12.10;43.20;;;;;;5110809;28;20754;-72
2023/12/28 09:15:08;;;;;;;8.43;2.72;;;12.20;42.90;;;;;;5094048;28;20388;-71
2023/12/28 09:17:34;;;;;;;12.13;3.10;;;12.20;42.30;;;;;;5090928;28;20394;-72
2023/12/28 09:20:01;;;;;;;9.57;2.60;;;12.20;42.30;;;;;;5084254;28;20388;-73
2023/12/28 09:22:27;;;;;;;8.95;2.92;;;12.30;42.10;;;;;;5113847;28;20381;-73
2023/12/28 09:24:52;;;;;;;14.30;2.97;;;12.30;41.80;;;;;;5124214;28;20451;-72
2023/12/28 09:27:18;;;;;;;10.93;3.20;;;12.30;42.00;;;;;;5113245;28;20732;-70
2023/12/28 09:29:43;;;;;;;12.13;3.30;;;12.30;41.70;;;;;;5106605;28;20748;-74
2023/12/28 09:32:09;;;;;;;11.95;3.03;;;12.30;41.80;;;;;;5094941;28;20374;-71
2023/12/28 09:34:34;;;;;;;11.40;3.17;;;12.40;41.70;;;;;;5096044;28;20390;-74
2023/12/28 09:37:00;;;;;;;9.40;2.87;;;12.40;41.80;;;;;;5111968;28;21004;-71
2023/12/28 09:39:26;;;;;;;16.63;3.47;;;12.40;41.70;;;;;;5114580;28;20423;-74
2023/12/28 09:42:04;;;;;;;8.82;2.40;;;12.50;41.60;;;;;;5114304;28;20847;-75
2023/12/28 09:44:31;;;;;;;12.73;3.15;;;12.50;41.40;;;;;;5114013;28;20383;-71
2023/12/28 09:46:57;;;;;;;11.60;3.10;;;12.50;41.20;;;;;;5113885;28;20380;-72
2023/12/28 09:49:23;;;;;;;10.32;2.80;;;12.70;40.60;;;;;;5114159;28;20901;-75
2023/12/28 09:51:49;;;;;;;11.73;3.00;;;12.60;40.60;;;;;;5114752;28;20388;-71
2023/12/28 09:54:14;;;;;;;8.90;3.27;;;12.60;40.40;;;;;;5116940;28;20403;-73
2023/12/28 09:56:40;;;;;;;8.73;2.70;;;12.70;40.30;;;;;;5117616;28;20462;-74
2023/12/28 09:59:07;;;;;;;8.98;2.42;;;12.70;40.40;;;;;;5113199;28;20408;-73
2023/12/28 10:01:35;;;;;;;8.07;2.90;;;12.80;39.80;;;;;;5106343;28;20390;-76
2023/12/28 10:04:03;;;;;;;15.00;3.63;;;12.90;39.30;;;;;;5095218;28;20394;-71
2023/12/28 10:06:28;;;;;;;13.18;3.90;;;12.80;38.70;;;;;;5097361;28;20407;-71
2023/12/28 10:08:55;;;;;;;12.55;3.10;;;12.80;39.20;;;;;;5110677;28;20376;-70
2023/12/28 10:11:21;;;;;;;16.33;3.38;;;12.70;39.30;;;;;;5112031;28;20533;-72
2023/12/28 10:13:48;;;;;;;10.82;3.50;;;12.60;39.40;;;;;;5094472;28;20405;-74
2023/12/28 10:16:15;;;;;;;18.95;3.78;;;12.60;40.10;;;;;;5097664;28;20472;-72
2023/12/28 10:18:42;;;;;;;11.48;3.05;;;12.50;39.40;;;;;;5102129;28;20402;-70
2023/12/28 10:21:08;;;;;;;12.30;3.80;;;12.50;39.80;;;;;;5094249;28;20374;-72
2023/12/28 10:23:34;;;;;;;13.13;3.70;;;12.60;39.40;;;;;;5106836;28;20782;-71
2023/12/28 10:26:00;;;;;;;16.35;3.83;;;12.60;39.50;;;;;;5103550;28;20402;-72
2023/12/28 10:28:26;;;;;;;13.93;3.95;;;12.70;39.00;;;;;;5092725;28;20413;-70
2023/12/28 10:30:56;;;;;;;21.80;4.10;;;12.80;38.80;;;;;;5106091;28;20480;-74
2023/12/28 10:33:21;;;;;;;10.15;3.10;;;13.00;38.70;;;;;;5100687;28;20729;-72
2023/12/28 10:35:52;;;;;;;15.05;3.58;;;13.10;38.30;;;;;;5108758;28;20449;-71
2023/12/28 10:38:19;;;;;;;11.18;3.30;;;13.10;38.30;;;;;;5082990;28;20409;-74
2023/12/28 10:40:46;;;;;;;12.73;3.90;;;13.20;37.90;;;;;;5109675;28;20475;-69
2023/12/28 10:43:16;;;;;;;10.73;3.20;;;13.20;37.40;;;;;;5101902;28;20444;-72
2023/12/28 10:45:45;;;;;;;14.75;3.45;;;13.30;37.50;;;;;;5091925;28;20461;-71
2023/12/28 10:48:12;;;;;;;13.02;3.80;;;13.30;37.70;;;;;;5100373;28;20420;-76
2023/12/28 10:50:49;;;;;;;13.27;3.45;;;13.40;36.90;;;;;;5079442;28;20891;-74
2023/12/28 10:53:39;;;;;;;10.15;3.35;;;13.40;36.90;;;;;;5074104;28;20492;-77
2023/12/28 10:56:27;;;;;;;10.57;3.22;;;13.40;37.00;;;;;;5094674;28;20409;-74
2023/12/28 10:59:00;;;;;;;13.73;4.05;;;13.30;36.70;;;;;;5102713;28;20400;-70
2023/12/28 11:01:31;;;;;;;14.88;3.80;;;13.20;37.10;;;;;;5107912;28;20387;-72
2023/12/28 11:04:04;;;;;;;13.02;3.60;;;13.30;37.00;;;;;;5092970;28;20389;-69
2023/12/28 11:06:30;;;;;;;13.57;3.55;;;13.40;37.00;;;;;;5082816;28;20381;-70
2023/12/28 11:08:58;;;;;;;10.73;3.05;;;13.50;36.30;;;;;;5112300;28;20376;-72
2023/12/28 11:11:24;;;;;;;11.55;3.40;;;13.50;36.00;;;;;;5111953;28;20384;-71
2023/12/28 11:13:51;;;;;;;16.50;3.60;;;13.60;35.80;;;;;;5112039;28;20380;-71
2023/12/28 11:16:17;;;;;;;11.68;2.97;;;13.60;36.00;;;;;;5111493;28;20399;-73
2023/12/28 11:18:44;;;;;;;12.50;2.95;;;13.70;36.40;;;;;;5102732;28;20413;-71
2023/12/28 11:21:09;;;;;;;17.25;3.90;;;13.70;35.60;;;;;;5091640;28;20361;-70
2023/12/28 11:23:35;;;;;;;13.47;2.93;;;13.70;35.40;;;;;;5092468;28;20396;-72
2023/12/28 11:26:02;;;;;;;11.50;3.00;;;13.70;34.70;;;;;;5091730;28;20389;-71
2023/12/28 11:28:27;;;;;;;13.18;3.50;;;13.80;34.70;;;;;;5092079;28;20417;-70
2023/12/28 11:30:53;;;;;;;9.00;2.70;;;13.80;34.80;;;;;;5097628;28;20432;-73
2023/12/28 11:33:18;;;;;;;10.02;2.72;;;13.80;34.50;;;;;;5093243;28;20376;-70
2023/12/28 11:35:47;;;;;;;13.43;3.43;;;13.90;34.30;;;;;;5110244;28;20874;-70
2023/12/28 11:38:16;;;;;;;15.43;3.20;;;13.70;34.50;;;;;;5110106;28;20473;-70
2023/12/28 11:40:49;;;;;;;11.70;3.75;;;13.70;34.40;;;;;;5111662;28;20734;-71
2023/12/28 11:43:18;;;;;;;15.48;3.25;;;13.80;34.20;;;;;;5111780;28;20381;-71
2023/12/28 11:45:50;;;;;;;15.73;3.13;;;13.70;34.20;;;;;;5110496;28;20368;-70
2023/12/28 11:48:24;;;;;;;11.55;3.00;;;13.70;34.30;;;;;;5110976;28;20753;-71
2023/12/28 11:50:50;;;;;;;10.82;2.88;;;13.90;33.70;;;;;;5093091;28;20484;-72
2023/12/28 11:53:16;;;;;;;14.75;2.85;;;13.70;33.90;;;;;;5111615;28;20894;-71
2023/12/28 11:55:42;;;;;;;15.93;3.30;;;13.80;34.10;;;;;;5111503;28;20388;-72
2023/12/28 11:58:07;;;;;;;11.82;3.08;;;13.80;34.00;;;;;;5111546;28;20887;-72
2023/12/28 12:00:33;;;;;;;11.80;3.40;;;13.80;33.90;;;;;;5112425;28;20384;-71
2023/12/28 12:02:58;;;;;;;14.43;3.27;;;13.80;33.70;;;;;;5111694;28;20376;-71
2023/12/28 12:05:24;;;;;;;11.68;3.25;;;13.80;33.80;;;;;;5112266;28;20444;-73
2023/12/28 12:07:49;;;;;;;11.93;3.10;;;13.80;33.90;;;;;;5111911;28;20857;-72
2023/12/28 12:10:16;;;;;;;8.53;3.00;;;13.70;34.00;;;;;;5111389;28;20938;-71
2023/12/28 12:12:42;;;;;;;14.13;3.10;;;13.80;33.80;;;;;;5112045;28;20456;-72
2023/12/28 12:15:08;;;;;;;9.55;3.00;;;13.80;34.30;;;;;;5093398;28;20385;-73
2023/12/28 12:17:34;;;;;;;13.23;2.85;;;13.80;33.60;;;;;;5111910;28;20399;-71
2023/12/28 12:20:02;;;;;;;15.00;3.22;;;13.70;34.40;;;;;;5111725;28;20384;-71
2023/12/28 12:22:27;;;;;;;11.18;3.00;;;13.70;34.30;;;;;;5111568;28;20372;-73
2023/12/28 12:24:56;;;;;;;14.47;3.70;;;13.70;34.40;;;;;;5112087;28;20399;-73
2023/12/28 12:27:21;;;;;;;13.23;4.05;;;13.80;34.30;;;;;;5092621;28;20381;-71
2023/12/28 12:29:47;;;;;;;14.98;3.90;;;13.70;34.60;;;;;;5093074;28;20881;-73
2023/12/28 12:32:13;;;;;;;11.50;3.10;;;13.70;34.80;;;;;;5112457;28;20381;-69
2023/12/28 12:34:39;;;;;;;14.90;3.30;;;13.60;34.40;;;;;;5111507;28;20377;-72
2023/12/28 12:37:05;;;;;;;10.73;2.60;;;13.60;34.70;;;;;;5093190;28;20424;-73
2023/12/28 12:39:31;;;;;;;15.43;3.10;;;13.60;34.80;;;;;;5111385;28;20891;-72
2023/12/28 12:41:57;;;;;;;13.15;3.33;;;13.50;34.50;;;;;;5116697;28;20396;-71